sensor_id;sensor_type;location;lat;lon;timestamp;temperature;humidity
50013;DHT22;35901;48.694;9.476;2023-08-06T00:00:04;13.70;99.90
50013;DHT22;35901;48.694;9.476;2023-08-06T00:02:34;13.70;99.90
50013;DHT22;35901;48.694;9.476;2023-08-06T00:05:00;13.70;99.90
50013;DHT22;35901;48.694;9.476;2023-08-06T00:07:26;13.70;99.90
50013;DHT22;35901;48.694;9.476;2023-08-06T00:09:51;13.70;99.90
50013;DHT22;35901;48.694;9.476;2023-08-06T00:12:17;13.60;99.90
50013;DHT22;35901;48.694;9.476;2023-08-06T00:14:43;13.60;99.90
50013;DHT22;35901;48.694;9.476;2023-08-06T00:17:09;13.50;99.90
50013;DHT22;35901;48.694;9.476;2023-08-06T00:19:35;13.50;99.90
50013;DHT22;35901;48.694;9.476;2023-08-06T00:22:00;13.50;99.90
50013;DHT22;35901;48.694;9.476;2023-08-06T00:24:27;13.40;99.90
50013;DHT22;35901;48.694;9.476;2023-08-06T00:26:53;13.40;99.90
50013;DHT22;35901;48.694;9.476;2023-08-06T00:29:19;13.30;99.90
50013;DHT22;35901;48.694;9.476;2023-08-06T00:31:44;13.20;99.90
50013;DHT22;35901;48.694;9.476;2023-08-06T00:34:10;13.10;99.90
50013;DHT22;35901;48.694;9.476;2023-08-06T00:36:36;13.10;99.90
50013;DHT22;35901;48.694;9.476;2023-08-06T00:39:01;13.10;99.90
50013;DHT22;35901;48.694;9.476;2023-08-06T00:41:28;13.10;99.90
50013;DHT22;35901;48.694;9.476;2023-08-06T00:43:53;13.10;99.90
50013;DHT22;35901;48.694;9.476;2023-08-06T00:46:19;13.10;99.90
50013;DHT22;35901;48.694;9.476;2023-08-06T00:48:46;13.10;99.90
50013;DHT22;35901;48.694;9.476;2023-08-06T00:51:12;13.00;99.90
50013;DHT22;35901;48.694;9.476;2023-08-06T00:53:38;13.00;99.90
50013;DHT22;35901;48.694;9.476;2023-08-06T00:56:05;13.00;99.90
50013;DHT22;35901;48.694;9.476;2023-08-06T00:58:30;13.00;99.90
50013;DHT22;35901;48.694;9.476;2023-08-06T01:00:56;13.00;99.90
50013;DHT22;35901;48.694;9.476;2023-08-06T01:03:23;13.10;99.90
50013;DHT22;35901;48.694;9.476;2023-08-06T01:05:49;13.00;99.90
50013;DHT22;35901;48.694;9.476;2023-08-06T01:13:45;12.80;99.90
50013;DHT22;35901;48.694;9.476;2023-08-06T01:16:18;12.90;99.90
50013;DHT22;35901;48.694;9.476;2023-08-06T01:18:47;12.90;99.90
50013;DHT22;35901;48.694;9.476;2023-08-06T01:21:18;12.90;99.90
50013;DHT22;35901;48.694;9.476;2023-08-06T01:23:43;12.80;99.90
50013;DHT22;35901;48.694;9.476;2023-08-06T01:31:11;12.70;99.90
50013;DHT22;35901;48.694;9.476;2023-08-06T01:33:43;12.70;99.90
50013;DHT22;35901;48.694;9.476;2023-08-06T01:36:10;12.70;99.90
50013;DHT22;35901;48.694;9.476;2023-08-06T01:38:36;12.70;99.90
50013;DHT22;35901;48.694;9.476;2023-08-06T01:41:02;12.60;99.90
50013;DHT22;35901;48.694;9.476;2023-08-06T01:43:27;12.70;99.90
50013;DHT22;35901;48.694;9.476;2023-08-06T01:45:53;12.70;99.90
50013;DHT22;35901;48.694;9.476;2023-08-06T01:48:18;12.70;99.90
50013;DHT22;35901;48.694;9.476;2023-08-06T01:50:44;12.80;99.90
50013;DHT22;35901;48.694;9.476;2023-08-06T01:53:10;12.80;99.90
50013;DHT22;35901;48.694;9.476;2023-08-06T01:55:36;12.90;99.90
50013;DHT22;35901;48.694;9.476;2023-08-06T01:58:02;12.90;99.90
50013;DHT22;35901;48.694;9.476;2023-08-06T02:00:28;12.90;99.90
50013;DHT22;35901;48.694;9.476;2023-08-06T02:02:54;12.90;99.90
50013;DHT22;35901;48.694;9.476;2023-08-06T02:05:19;12.90;99.90
50013;DHT22;35901;48.694;9.476;2023-08-06T02:07:45;12.90;99.90
50013;DHT22;35901;48.694;9.476;2023-08-06T02:10:11;12.80;99.90
50013;DHT22;35901;48.694;9.476;2023-08-06T02:12:36;12.80;99.90
50013;DHT22;35901;48.694;9.476;2023-08-06T02:15:04;12.80;99.90
50013;DHT22;35901;48.694;9.476;2023-08-06T02:17:30;12.80;99.90
50013;DHT22;35901;48.694;9.476;2023-08-06T02:19:55;12.80;99.90
50013;DHT22;35901;48.694;9.476;2023-08-06T02:22:21;12.70;99.90
50013;DHT22;35901;48.694;9.476;2023-08-06T02:24:49;12.70;99.90
50013;DHT22;35901;48.694;9.476;2023-08-06T02:27:15;12.60;99.90
50013;DHT22;35901;48.694;9.476;2023-08-06T02:29:40;12.60;99.90
50013;DHT22;35901;48.694;9.476;2023-08-06T02:32:07;12.70;99.90
50013;DHT22;35901;48.694;9.476;2023-08-06T02:34:33;12.70;99.90
50013;DHT22;35901;48.694;9.476;2023-08-06T02:36:58;12.70;99.90
50013;DHT22;35901;48.694;9.476;2023-08-06T02:39:24;12.70;99.90
50013;DHT22;35901;48.694;9.476;2023-08-06T02:41:51;12.70;99.90
50013;DHT22;35901;48.694;9.476;2023-08-06T02:44:16;12.50;99.90
50013;DHT22;35901;48.694;9.476;2023-08-06T02:46:44;12.40;99.90
50013;DHT22;35901;48.694;9.476;2023-08-06T02:49:10;12.30;99.90
50013;DHT22;35901;48.694;9.476;2023-08-06T02:51:35;12.20;99.90
50013;DHT22;35901;48.694;9.476;2023-08-06T02:54:01;12.20;99.90
50013;DHT22;35901;48.694;9.476;2023-08-06T02:56:27;12.10;99.90
50013;DHT22;35901;48.694;9.476;2023-08-06T02:59:09;12.00;99.90
50013;DHT22;35901;48.694;9.476;2023-08-06T03:01:49;11.90;99.90
50013;DHT22;35901;48.694;9.476;2023-08-06T03:04:22;11.80;99.90
50013;DHT22;35901;48.694;9.476;2023-08-06T03:06:50;11.70;99.90
50013;DHT22;35901;48.694;9.476;2023-08-06T03:09:17;11.70;99.90
50013;DHT22;35901;48.694;9.476;2023-08-06T03:11:43;11.60;99.90
50013;DHT22;35901;48.694;9.476;2023-08-06T03:14:12;11.50;99.90
50013;DHT22;35901;48.694;9.476;2023-08-06T03:16:39;11.50;99.90
50013;DHT22;35901;48.694;9.476;2023-08-06T03:19:05;11.50;99.90
50013;DHT22;35901;48.694;9.476;2023-08-06T03:21:30;11.60;99.90
50013;DHT22;35901;48.694;9.476;2023-08-06T03:23:57;11.50;99.90
50013;DHT22;35901;48.694;9.476;2023-08-06T03:26:26;11.40;99.90
50013;DHT22;35901;48.694;9.476;2023-08-06T03:28:52;11.30;99.90
50013;DHT22;35901;48.694;9.476;2023-08-06T03:31:19;11.20;99.90
50013;DHT22;35901;48.694;9.476;2023-08-06T03:33:45;11.20;99.90
50013;DHT22;35901;48.694;9.476;2023-08-06T03:36:15;11.20;99.90
50013;DHT22;35901;48.694;9.476;2023-08-06T03:38:42;11.10;99.90
50013;DHT22;35901;48.694;9.476;2023-08-06T03:41:10;11.20;99.90
50013;DHT22;35901;48.694;9.476;2023-08-06T03:43:35;11.20;99.90
50013;DHT22;35901;48.694;9.476;2023-08-06T03:46:04;11.20;99.90
50013;DHT22;35901;48.694;9.476;2023-08-06T03:48:31;11.20;99.90
50013;DHT22;35901;48.694;9.476;2023-08-06T03:50:57;11.20;99.90
50013;DHT22;35901;48.694;9.476;2023-08-06T03:53:25;11.30;99.90
50013;DHT22;35901;48.694;9.476;2023-08-06T03:55:50;11.40;99.90
50013;DHT22;35901;48.694;9.476;2023-08-06T03:58:16;11.50;99.90
50013;DHT22;35901;48.694;9.476;2023-08-06T04:00:42;11.60;99.90
50013;DHT22;35901;48.694;9.476;2023-08-06T04:03:07;11.60;99.90
50013;DHT22;35901;48.694;9.476;2023-08-06T04:05:33;11.70;99.90
50013;DHT22;35901;48.694;9.476;2023-08-06T04:07:59;11.60;99.90
50013;DHT22;35901;48.694;9.476;2023-08-06T04:10:25;11.70;99.90
50013;DHT22;35901;48.694;9.476;2023-08-06T04:12:51;11.60;99.90
50013;DHT22;35901;48.694;9.476;2023-08-06T04:15:16;11.60;99.90
50013;DHT22;35901;48.694;9.476;2023-08-06T04:17:42;11.70;99.90
50013;DHT22;35901;48.694;9.476;2023-08-06T04:20:08;11.70;99.90
50013;DHT22;35901;48.694;9.476;2023-08-06T04:22:34;11.80;99.90
50013;DHT22;35901;48.694;9.476;2023-08-06T04:24:59;11.80;99.90
50013;DHT22;35901;48.694;9.476;2023-08-06T04:27:25;11.80;99.90
50013;DHT22;35901;48.694;9.476;2023-08-06T04:29:51;11.90;99.90
50013;DHT22;35901;48.694;9.476;2023-08-06T04:32:17;11.90;99.90
50013;DHT22;35901;48.694;9.476;2023-08-06T04:34:47;11.90;99.90
50013;DHT22;35901;48.694;9.476;2023-08-06T04:37:13;11.90;99.90
50013;DHT22;35901;48.694;9.476;2023-08-06T04:39:39;12.00;99.90
50013;DHT22;35901;48.694;9.476;2023-08-06T04:42:06;12.00;99.90
50013;DHT22;35901;48.694;9.476;2023-08-06T04:44:31;12.00;99.90
50013;DHT22;35901;48.694;9.476;2023-08-06T04:46:57;12.10;99.90
50013;DHT22;35901;48.694;9.476;2023-08-06T04:49:23;12.10;99.90
50013;DHT22;35901;48.694;9.476;2023-08-06T04:51:48;12.20;99.90
50013;DHT22;35901;48.694;9.476;2023-08-06T04:54:14;12.30;99.90
50013;DHT22;35901;48.694;9.476;2023-08-06T04:56:40;12.30;99.90
50013;DHT22;35901;48.694;9.476;2023-08-06T04:59:05;12.30;99.90
50013;DHT22;35901;48.694;9.476;2023-08-06T05:01:31;12.40;99.90
50013;DHT22;35901;48.694;9.476;2023-08-06T05:03:57;12.40;99.90
50013;DHT22;35901;48.694;9.476;2023-08-06T05:06:22;12.50;99.90
50013;DHT22;35901;48.694;9.476;2023-08-06T05:08:48;12.50;99.90
50013;DHT22;35901;48.694;9.476;2023-08-06T05:11:14;12.60;99.90
50013;DHT22;35901;48.694;9.476;2023-08-06T05:13:39;12.70;99.90
50013;DHT22;35901;48.694;9.476;2023-08-06T05:16:05;12.70;99.90
50013;DHT22;35901;48.694;9.476;2023-08-06T05:18:31;12.70;99.90
50013;DHT22;35901;48.694;9.476;2023-08-06T05:20:57;12.80;99.90
50013;DHT22;35901;48.694;9.476;2023-08-06T05:23:23;12.80;99.90
50013;DHT22;35901;48.694;9.476;2023-08-06T05:25:48;12.90;99.90
50013;DHT22;35901;48.694;9.476;2023-08-06T05:28:14;12.90;99.90
50013;DHT22;35901;48.694;9.476;2023-08-06T05:30:40;13.00;99.90
50013;DHT22;35901;48.694;9.476;2023-08-06T05:33:06;13.10;99.90
50013;DHT22;35901;48.694;9.476;2023-08-06T05:35:32;13.10;99.90
50013;DHT22;35901;48.694;9.476;2023-08-06T05:37:57;13.20;99.90
50013;DHT22;35901;48.694;9.476;2023-08-06T05:40:23;13.20;99.90
50013;DHT22;35901;48.694;9.476;2023-08-06T05:42:53;13.10;99.90
50013;DHT22;35901;48.694;9.476;2023-08-06T05:45:19;13.30;99.90
50013;DHT22;35901;48.694;9.476;2023-08-06T05:47:44;14.40;99.90
50013;DHT22;35901;48.694;9.476;2023-08-06T05:50:10;15.00;99.90
50013;DHT22;35901;48.694;9.476;2023-08-06T05:52:35;14.80;99.90
50013;DHT22;35901;48.694;9.476;2023-08-06T05:55:01;14.50;99.90
50013;DHT22;35901;48.694;9.476;2023-08-06T05:57:27;14.20;99.90
50013;DHT22;35901;48.694;9.476;2023-08-06T05:59:52;14.70;99.90
50013;DHT22;35901;48.694;9.476;2023-08-06T06:02:18;14.90;99.90
50013;DHT22;35901;48.694;9.476;2023-08-06T06:04:44;15.00;99.90
50013;DHT22;35901;48.694;9.476;2023-08-06T06:07:10;15.00;99.90
50013;DHT22;35901;48.694;9.476;2023-08-06T06:09:35;14.80;99.90
50013;DHT22;35901;48.694;9.476;2023-08-06T06:12:01;14.70;99.90
50013;DHT22;35901;48.694;9.476;2023-08-06T06:14:27;14.60;99.90
50013;DHT22;35901;48.694;9.476;2023-08-06T06:16:52;14.60;99.90
50013;DHT22;35901;48.694;9.476;2023-08-06T06:19:18;14.50;99.90
50013;DHT22;35901;48.694;9.476;2023-08-06T06:21:44;14.40;99.90
50013;DHT22;35901;48.694;9.476;2023-08-06T06:24:09;14.30;99.90
50013;DHT22;35901;48.694;9.476;2023-08-06T06:26:35;14.30;99.90
50013;DHT22;35901;48.694;9.476;2023-08-06T06:29:01;14.20;99.90
50013;DHT22;35901;48.694;9.476;2023-08-06T06:31:26;14.20;99.90
50013;DHT22;35901;48.694;9.476;2023-08-06T06:33:52;14.20;99.90
50013;DHT22;35901;48.694;9.476;2023-08-06T06:36:20;14.20;99.90
50013;DHT22;35901;48.694;9.476;2023-08-06T06:38:45;14.30;99.90
50013;DHT22;35901;48.694;9.476;2023-08-06T06:41:11;14.40;99.90
50013;DHT22;35901;48.694;9.476;2023-08-06T06:43:37;14.40;99.90
50013;DHT22;35901;48.694;9.476;2023-08-06T06:46:05;14.50;99.90
50013;DHT22;35901;48.694;9.476;2023-08-06T06:48:32;14.50;99.90
50013;DHT22;35901;48.694;9.476;2023-08-06T06:50:58;14.50;99.90
50013;DHT22;35901;48.694;9.476;2023-08-06T06:53:24;14.40;99.90
50013;DHT22;35901;48.694;9.476;2023-08-06T06:56:01;14.30;99.90
50013;DHT22;35901;48.694;9.476;2023-08-06T06:58:27;14.30;99.90
50013;DHT22;35901;48.694;9.476;2023-08-06T07:00:52;14.20;99.90
50013;DHT22;35901;48.694;9.476;2023-08-06T07:03:19;14.20;99.90
50013;DHT22;35901;48.694;9.476;2023-08-06T07:05:45;14.30;99.90
50013;DHT22;35901;48.694;9.476;2023-08-06T07:08:11;14.50;99.90
50013;DHT22;35901;48.694;9.476;2023-08-06T07:10:37;14.80;99.90
50013;DHT22;35901;48.694;9.476;2023-08-06T07:13:03;14.90;99.90
50013;DHT22;35901;48.694;9.476;2023-08-06T07:15:28;15.00;99.90
50013;DHT22;35901;48.694;9.476;2023-08-06T07:17:54;15.10;99.90
50013;DHT22;35901;48.694;9.476;2023-08-06T07:20:20;15.10;99.90
50013;DHT22;35901;48.694;9.476;2023-08-06T07:22:46;15.00;99.90
50013;DHT22;35901;48.694;9.476;2023-08-06T07:25:12;15.00;99.90
50013;DHT22;35901;48.694;9.476;2023-08-06T07:27:39;14.80;99.90
50013;DHT22;35901;48.694;9.476;2023-08-06T07:30:05;14.70;99.90
50013;DHT22;35901;48.694;9.476;2023-08-06T07:32:31;14.50;99.90
50013;DHT22;35901;48.694;9.476;2023-08-06T07:34:57;14.20;99.90
50013;DHT22;35901;48.694;9.476;2023-08-06T07:37:26;14.10;99.90
50013;DHT22;35901;48.694;9.476;2023-08-06T07:39:55;14.00;99.90
50013;DHT22;35901;48.694;9.476;2023-08-06T07:42:22;14.10;99.90
50013;DHT22;35901;48.694;9.476;2023-08-06T07:44:54;14.10;99.90
50013;DHT22;35901;48.694;9.476;2023-08-06T07:47:20;14.00;99.90
50013;DHT22;35901;48.694;9.476;2023-08-06T07:49:46;13.70;99.90
50013;DHT22;35901;48.694;9.476;2023-08-06T07:52:11;13.50;99.90
50013;DHT22;35901;48.694;9.476;2023-08-06T07:54:37;13.40;99.90
50013;DHT22;35901;48.694;9.476;2023-08-06T07:57:03;13.40;99.90
50013;DHT22;35901;48.694;9.476;2023-08-06T07:59:28;13.50;99.90
50013;DHT22;35901;48.694;9.476;2023-08-06T08:01:54;13.50;99.90
50013;DHT22;35901;48.694;9.476;2023-08-06T08:04:20;13.50;99.90
50013;DHT22;35901;48.694;9.476;2023-08-06T08:06:46;13.50;99.90
50013;DHT22;35901;48.694;9.476;2023-08-06T08:09:13;13.60;99.90
50013;DHT22;35901;48.694;9.476;2023-08-06T08:11:39;13.70;99.90
50013;DHT22;35901;48.694;9.476;2023-08-06T08:14:06;13.80;99.90
50013;DHT22;35901;48.694;9.476;2023-08-06T08:16:31;14.00;99.90
50013;DHT22;35901;48.694;9.476;2023-08-06T08:18:57;14.30;99.90
50013;DHT22;35901;48.694;9.476;2023-08-06T08:21:23;14.60;99.90
50013;DHT22;35901;48.694;9.476;2023-08-06T08:23:52;14.90;99.90
50013;DHT22;35901;48.694;9.476;2023-08-06T08:26:18;15.30;99.90
50013;DHT22;35901;48.694;9.476;2023-08-06T08:28:43;15.50;99.90
50013;DHT22;35901;48.694;9.476;2023-08-06T08:31:10;15.80;99.90
50013;DHT22;35901;48.694;9.476;2023-08-06T08:33:37;16.00;99.90
50013;DHT22;35901;48.694;9.476;2023-08-06T08:36:03;16.00;99.90
50013;DHT22;35901;48.694;9.476;2023-08-06T08:38:29;16.00;99.90
50013;DHT22;35901;48.694;9.476;2023-08-06T08:40:55;16.00;99.90
50013;DHT22;35901;48.694;9.476;2023-08-06T08:43:21;15.90;99.90
50013;DHT22;35901;48.694;9.476;2023-08-06T08:45:50;15.80;99.90
50013;DHT22;35901;48.694;9.476;2023-08-06T08:48:16;15.60;99.90
50013;DHT22;35901;48.694;9.476;2023-08-06T08:50:45;15.30;99.90
50013;DHT22;35901;48.694;9.476;2023-08-06T08:53:12;15.20;99.90
50013;DHT22;35901;48.694;9.476;2023-08-06T08:55:38;15.10;99.90
50013;DHT22;35901;48.694;9.476;2023-08-06T08:58:04;15.10;99.90
50013;DHT22;35901;48.694;9.476;2023-08-06T09:00:30;15.10;99.90
50013;DHT22;35901;48.694;9.476;2023-08-06T09:02:58;15.10;99.90
50013;DHT22;35901;48.694;9.476;2023-08-06T09:05:27;15.10;99.90
50013;DHT22;35901;48.694;9.476;2023-08-06T09:07:55;15.20;99.90
50013;DHT22;35901;48.694;9.476;2023-08-06T09:10:25;15.20;99.90
50013;DHT22;35901;48.694;9.476;2023-08-06T09:12:51;15.30;99.90
50013;DHT22;35901;48.694;9.476;2023-08-06T09:15:19;15.40;99.90
50013;DHT22;35901;48.694;9.476;2023-08-06T09:17:45;15.60;99.90
50013;DHT22;35901;48.694;9.476;2023-08-06T09:20:12;15.60;99.90
50013;DHT22;35901;48.694;9.476;2023-08-06T09:22:38;15.70;99.90
50013;DHT22;35901;48.694;9.476;2023-08-06T09:25:06;15.50;99.90
50013;DHT22;35901;48.694;9.476;2023-08-06T09:27:35;15.60;99.90
50013;DHT22;35901;48.694;9.476;2023-08-06T09:30:02;15.80;99.90
50013;DHT22;35901;48.694;9.476;2023-08-06T09:32:45;15.80;99.90
50013;DHT22;35901;48.694;9.476;2023-08-06T09:35:16;15.80;99.90
50013;DHT22;35901;48.694;9.476;2023-08-06T09:37:42;15.90;99.90
50013;DHT22;35901;48.694;9.476;2023-08-06T09:40:28;16.00;99.90
50013;DHT22;35901;48.694;9.476;2023-08-06T09:42:54;16.00;99.90
50013;DHT22;35901;48.694;9.476;2023-08-06T09:45:20;16.10;99.90
50013;DHT22;35901;48.694;9.476;2023-08-06T09:47:52;16.20;99.90
50013;DHT22;35901;48.694;9.476;2023-08-06T09:50:20;16.30;99.90
50013;DHT22;35901;48.694;9.476;2023-08-06T09:52:47;16.50;99.90
50013;DHT22;35901;48.694;9.476;2023-08-06T09:55:14;16.50;99.90
50013;DHT22;35901;48.694;9.476;2023-08-06T09:57:43;16.60;99.90
50013;DHT22;35901;48.694;9.476;2023-08-06T10:00:10;16.60;99.90
50013;DHT22;35901;48.694;9.476;2023-08-06T10:02:40;16.50;99.90
50013;DHT22;35901;48.694;9.476;2023-08-06T10:05:09;16.40;99.90
50013;DHT22;35901;48.694;9.476;2023-08-06T10:07:35;16.30;99.90
50013;DHT22;35901;48.694;9.476;2023-08-06T10:10:02;16.30;99.90
50013;DHT22;35901;48.694;9.476;2023-08-06T10:12:37;16.30;99.90
50013;DHT22;35901;48.694;9.476;2023-08-06T10:15:09;16.10;99.90
50013;DHT22;35901;48.694;9.476;2023-08-06T10:17:37;16.10;99.90
50013;DHT22;35901;48.694;9.476;2023-08-06T10:20:05;16.10;99.90
50013;DHT22;35901;48.694;9.476;2023-08-06T10:22:33;16.20;99.90
50013;DHT22;35901;48.694;9.476;2023-08-06T10:25:00;16.30;99.90
50013;DHT22;35901;48.694;9.476;2023-08-06T10:27:53;16.20;99.90
50013;DHT22;35901;48.694;9.476;2023-08-06T10:30:30;15.90;99.90
50013;DHT22;35901;48.694;9.476;2023-08-06T10:33:03;15.50;99.90
50013;DHT22;35901;48.694;9.476;2023-08-06T10:38:07;14.80;99.90
50013;DHT22;35901;48.694;9.476;2023-08-06T10:40:34;14.60;99.90
50013;DHT22;35901;48.694;9.476;2023-08-06T10:43:00;14.30;99.90
50013;DHT22;35901;48.694;9.476;2023-08-06T10:45:26;14.20;99.90
50013;DHT22;35901;48.694;9.476;2023-08-06T10:47:55;14.20;99.90
50013;DHT22;35901;48.694;9.476;2023-08-06T10:50:22;14.20;99.90
50013;DHT22;35901;48.694;9.476;2023-08-06T10:52:48;14.30;99.90
50013;DHT22;35901;48.694;9.476;2023-08-06T10:55:24;14.40;99.90
50013;DHT22;35901;48.694;9.476;2023-08-06T10:57:50;14.60;99.90
50013;DHT22;35901;48.694;9.476;2023-08-06T11:00:16;14.60;99.90
50013;DHT22;35901;48.694;9.476;2023-08-06T11:02:42;14.50;99.90
50013;DHT22;35901;48.694;9.476;2023-08-06T11:05:09;14.30;99.90
50013;DHT22;35901;48.694;9.476;2023-08-06T11:07:36;14.20;99.90
50013;DHT22;35901;48.694;9.476;2023-08-06T11:10:12;14.30;99.90
50013;DHT22;35901;48.694;9.476;2023-08-06T11:12:38;14.30;99.90
50013;DHT22;35901;48.694;9.476;2023-08-06T11:15:04;14.40;99.90
50013;DHT22;35901;48.694;9.476;2023-08-06T11:17:32;14.40;99.90
50013;DHT22;35901;48.694;9.476;2023-08-06T11:20:03;14.40;99.90
50013;DHT22;35901;48.694;9.476;2023-08-06T11:22:29;14.50;99.90
50013;DHT22;35901;48.694;9.476;2023-08-06T11:24:55;14.60;99.90
50013;DHT22;35901;48.694;9.476;2023-08-06T11:27:21;14.80;99.90
50013;DHT22;35901;48.694;9.476;2023-08-06T11:29:47;14.90;99.90
50013;DHT22;35901;48.694;9.476;2023-08-06T11:32:12;14.90;99.90
50013;DHT22;35901;48.694;9.476;2023-08-06T11:34:39;14.70;99.90
50013;DHT22;35901;48.694;9.476;2023-08-06T11:37:06;14.50;99.90
50013;DHT22;35901;48.694;9.476;2023-08-06T11:39:36;14.20;99.90
50013;DHT22;35901;48.694;9.476;2023-08-06T11:42:08;14.10;99.90
50013;DHT22;35901;48.694;9.476;2023-08-06T11:44:36;14.00;99.90
50013;DHT22;35901;48.694;9.476;2023-08-06T11:47:05;13.90;99.90
50013;DHT22;35901;48.694;9.476;2023-08-06T11:49:48;13.90;99.90
50013;DHT22;35901;48.694;9.476;2023-08-06T11:52:22;13.90;99.90
50013;DHT22;35901;48.694;9.476;2023-08-06T11:55:01;14.00;99.90
50013;DHT22;35901;48.694;9.476;2023-08-06T11:57:36;14.30;99.90
50013;DHT22;35901;48.694;9.476;2023-08-06T12:00:10;14.40;99.90
50013;DHT22;35901;48.694;9.476;2023-08-06T12:02:43;14.50;99.90
50013;DHT22;35901;48.694;9.476;2023-08-06T12:05:19;14.60;99.90
50013;DHT22;35901;48.694;9.476;2023-08-06T12:07:54;14.70;99.90
50013;DHT22;35901;48.694;9.476;2023-08-06T12:10:22;14.80;99.90
50013;DHT22;35901;48.694;9.476;2023-08-06T12:12:48;14.90;99.90
50013;DHT22;35901;48.694;9.476;2023-08-06T12:15:14;14.80;99.90
50013;DHT22;35901;48.694;9.476;2023-08-06T12:17:40;14.80;99.90
50013;DHT22;35901;48.694;9.476;2023-08-06T12:20:06;14.70;99.90
50013;DHT22;35901;48.694;9.476;2023-08-06T12:22:33;14.70;99.90
50013;DHT22;35901;48.694;9.476;2023-08-06T12:25:05;14.70;99.90
50013;DHT22;35901;48.694;9.476;2023-08-06T12:27:37;14.60;99.90
50013;DHT22;35901;48.694;9.476;2023-08-06T12:30:04;14.50;99.90
50013;DHT22;35901;48.694;9.476;2023-08-06T12:32:30;14.30;99.90
50013;DHT22;35901;48.694;9.476;2023-08-06T12:34:56;14.30;99.90
50013;DHT22;35901;48.694;9.476;2023-08-06T12:37:21;14.30;99.90
50013;DHT22;35901;48.694;9.476;2023-08-06T12:39:48;14.20;99.90
50013;DHT22;35901;48.694;9.476;2023-08-06T12:42:14;14.30;99.90
50013;DHT22;35901;48.694;9.476;2023-08-06T12:44:39;14.30;99.90
50013;DHT22;35901;48.694;9.476;2023-08-06T12:47:07;14.30;99.90
50013;DHT22;35901;48.694;9.476;2023-08-06T12:49:33;14.40;99.90
50013;DHT22;35901;48.694;9.476;2023-08-06T12:51:58;14.30;99.90
50013;DHT22;35901;48.694;9.476;2023-08-06T12:54:28;14.30;99.90
50013;DHT22;35901;48.694;9.476;2023-08-06T12:56:54;14.40;99.90
50013;DHT22;35901;48.694;9.476;2023-08-06T12:59:20;14.40;99.90
50013;DHT22;35901;48.694;9.476;2023-08-06T13:01:46;14.40;99.90
50013;DHT22;35901;48.694;9.476;2023-08-06T13:04:12;14.60;99.90
50013;DHT22;35901;48.694;9.476;2023-08-06T13:06:38;14.70;99.90
50013;DHT22;35901;48.694;9.476;2023-08-06T13:09:08;14.90;99.90
50013;DHT22;35901;48.694;9.476;2023-08-06T13:11:35;15.00;99.90
50013;DHT22;35901;48.694;9.476;2023-08-06T13:14:11;15.10;99.90
50013;DHT22;35901;48.694;9.476;2023-08-06T13:16:40;15.20;99.90
50013;DHT22;35901;48.694;9.476;2023-08-06T13:19:06;15.30;99.90
50013;DHT22;35901;48.694;9.476;2023-08-06T13:21:34;15.50;99.90
50013;DHT22;35901;48.694;9.476;2023-08-06T13:24:01;15.50;99.90
50013;DHT22;35901;48.694;9.476;2023-08-06T13:26:28;15.60;99.90
50013;DHT22;35901;48.694;9.476;2023-08-06T13:28:53;15.60;99.90
50013;DHT22;35901;48.694;9.476;2023-08-06T13:31:19;15.70;99.90
50013;DHT22;35901;48.694;9.476;2023-08-06T13:33:45;15.70;99.90
50013;DHT22;35901;48.694;9.476;2023-08-06T13:36:11;16.00;99.90
50013;DHT22;35901;48.694;9.476;2023-08-06T13:38:36;16.20;99.90
50013;DHT22;35901;48.694;9.476;2023-08-06T13:41:02;16.30;99.90
50013;DHT22;35901;48.694;9.476;2023-08-06T13:43:28;16.40;99.90
50013;DHT22;35901;48.694;9.476;2023-08-06T13:45:53;16.40;99.90
50013;DHT22;35901;48.694;9.476;2023-08-06T13:48:19;16.30;99.90
50013;DHT22;35901;48.694;9.476;2023-08-06T13:50:45;16.20;99.90
50013;DHT22;35901;48.694;9.476;2023-08-06T13:53:10;16.10;99.90
50013;DHT22;35901;48.694;9.476;2023-08-06T13:55:36;16.00;99.90
50013;DHT22;35901;48.694;9.476;2023-08-06T13:58:02;15.90;99.90
50013;DHT22;35901;48.694;9.476;2023-08-06T14:00:28;15.80;99.90
50013;DHT22;35901;48.694;9.476;2023-08-06T14:02:53;15.80;99.90
50013;DHT22;35901;48.694;9.476;2023-08-06T14:05:19;15.70;99.90
50013;DHT22;35901;48.694;9.476;2023-08-06T14:07:44;15.80;99.90
50013;DHT22;35901;48.694;9.476;2023-08-06T14:10:10;15.90;99.90
50013;DHT22;35901;48.694;9.476;2023-08-06T14:12:36;16.00;99.90
50013;DHT22;35901;48.694;9.476;2023-08-06T14:15:01;16.10;99.90
50013;DHT22;35901;48.694;9.476;2023-08-06T14:17:29;16.10;99.90
50013;DHT22;35901;48.694;9.476;2023-08-06T14:19:54;16.20;99.90
50013;DHT22;35901;48.694;9.476;2023-08-06T14:22:21;16.30;99.90
50013;DHT22;35901;48.694;9.476;2023-08-06T14:24:47;16.30;99.90
50013;DHT22;35901;48.694;9.476;2023-08-06T14:27:12;16.30;99.90
50013;DHT22;35901;48.694;9.476;2023-08-06T14:29:38;16.20;99.90
50013;DHT22;35901;48.694;9.476;2023-08-06T14:32:04;16.10;99.90
50013;DHT22;35901;48.694;9.476;2023-08-06T14:34:30;16.00;99.90
50013;DHT22;35901;48.694;9.476;2023-08-06T14:36:55;15.90;99.90
50013;DHT22;35901;48.694;9.476;2023-08-06T14:39:21;15.80;99.90
50013;DHT22;35901;48.694;9.476;2023-08-06T14:41:46;15.90;99.90
50013;DHT22;35901;48.694;9.476;2023-08-06T14:44:12;16.10;99.90
50013;DHT22;35901;48.694;9.476;2023-08-06T14:46:38;16.10;99.90
50013;DHT22;35901;48.694;9.476;2023-08-06T14:49:04;16.10;99.90
50013;DHT22;35901;48.694;9.476;2023-08-06T14:51:29;16.10;99.90
50013;DHT22;35901;48.694;9.476;2023-08-06T14:53:55;16.10;99.90
50013;DHT22;35901;48.694;9.476;2023-08-06T14:56:20;16.00;99.90
50013;DHT22;35901;48.694;9.476;2023-08-06T14:58:46;16.00;99.90
50013;DHT22;35901;48.694;9.476;2023-08-06T15:01:12;15.90;99.90
50013;DHT22;35901;48.694;9.476;2023-08-06T15:03:38;15.80;99.90
50013;DHT22;35901;48.694;9.476;2023-08-06T15:06:03;15.70;99.90
50013;DHT22;35901;48.694;9.476;2023-08-06T15:08:29;15.50;99.90
50013;DHT22;35901;48.694;9.476;2023-08-06T15:10:55;15.40;99.90
50013;DHT22;35901;48.694;9.476;2023-08-06T15:13:20;15.40;99.90
50013;DHT22;35901;48.694;9.476;2023-08-06T15:15:47;15.30;99.90
50013;DHT22;35901;48.694;9.476;2023-08-06T15:18:13;15.20;99.90
50013;DHT22;35901;48.694;9.476;2023-08-06T15:20:39;15.10;99.90
50013;DHT22;35901;48.694;9.476;2023-08-06T15:23:04;15.10;99.90
50013;DHT22;35901;48.694;9.476;2023-08-06T15:25:30;15.10;99.90
50013;DHT22;35901;48.694;9.476;2023-08-06T15:27:56;15.10;99.90
50013;DHT22;35901;48.694;9.476;2023-08-06T15:30:22;15.10;99.90
50013;DHT22;35901;48.694;9.476;2023-08-06T15:32:48;15.10;99.90
50013;DHT22;35901;48.694;9.476;2023-08-06T15:35:15;15.20;99.90
50013;DHT22;35901;48.694;9.476;2023-08-06T15:37:41;15.50;99.90
50013;DHT22;35901;48.694;9.476;2023-08-06T15:40:07;15.70;99.90